首页
METAR-TAF:

METAR-TAF

机场 :

卡普里岛, 意大利

纬度: 40-33N, 经度: 014-12E, 海拔: 160米

当前天气观测

该预报发布于6小时和22分钟前的17:55 UTC
风速8节,风向东北
温度 18°C
湿度 77%
气压 1014 hPa
能见度10公里或以上
少量云层高于2600英尺

METAR: LIQC 311755Z 04008KT 9999 FEW026 18/14 Q1014 RMK FEW QUK 2 QUL 1 NE VIS MAR 20 KM VIS MIN 9999

时间: 02:17 (00:17 UTC)


TAF: 丢失

超过4000个机场的气象观测和天气预报(METAR&TAF报告)。

可查询的气象台以黄色和红色小点在地图上表示。

将鼠标移到小点上方,可查看气象台名称。

然后点击查看天气观测和预报。

如需切换地图:点击带黑十字的绿色按钮放大地图;点击带横线的绿色按钮缩小地图;或者点击绿色箭头查看邻近地区的地图。


METAR-TAF: